KLOL/LOL METAR and TAF weather

Enter ICAO airport designator
Station Type Date Time Source
KLOL METAR 2021/01/20 20:53 UTC NOAA

KLOL 202053Z AUTO 17003KT 10SM CLR 07/M10 A3018 RMK AO2 SLP240 T00671100 58029


Station Type Date Time Source
KLOL Decoded METAR 2021/01/20 20:53 UTC NOAA

LOVELOCK DERBY FIELD, NV, United States (KLOL) 40-04N 118-34W 1189M
Jan 20, 2021 - 03:53 PM EST / 2021.01.20 2053 UTC
Wind: from the S (170 degrees) at 3 MPH (3 KT):0
Visibility: 10 mile(s):0
Sky conditions: clear
Temperature: 44.1 F (6.7 C)
Dew Point: 14.0 F (-10.0 C)
Relative Humidity: 29%
Pressure (altimeter): 30.18 in. Hg (1022 hPa)
Pressure tendency: 0.09 inches (2.9 hPa) lower than three hours ago
ob: KLOL 202053Z AUTO 17003KT 10SM CLR 07/M10 A3018 RMK AO2 SLP240 T00671100 58029
cycle: 21

Station Type Date Time Source
KLOL TAF 2010/01/05 05:22 UTC NOAA

TAF KLOL 050522Z 0506/0606 00000KT 1/4SM FZFG VV001
FM052000 VRB03KT 3SM BR OVC002
AMD NOT SKED

Example: see airport list